Time;durP1;ratioP1;P1;durP2;ratioP2;P2;SDS_P1;SDS_P2;PMS_P1;PMS_P2;Temp;Humidity;BMP_temperature;BMP_pressure;BME280_temperature;BME280_humidity;BME280_pressure;Samples;Min_cycle;Max_cycle;Signal;HPM_P1;HPM_P2
2023/11/10 00:00:45;;;;;;;27.80;10.50;;;;;;;6.64;84.41;99347.52;110704;1272;22560;-77
2023/11/10 00:03:33;;;;;;;25.70;10.10;;;;;;;6.65;84.50;99345.52;110730;1270;23152;-77
2023/11/10 00:06:02;;;;;;;24.80;10.60;;;;;;;6.67;84.61;99337.98;110451;1267;23131;-77
2023/11/10 00:08:31;;;;;;;21.30;9.40;;;;;;;6.69;84.83;99341.20;110708;1267;22449;-77
2023/11/10 00:11:00;;;;;;;25.20;11.10;;;;;;;6.70;84.72;99337.09;110712;1268;22184;-77
2023/11/10 00:13:28;;;;;;;27.50;10.90;;;;;;;6.72;84.73;99333.91;110703;1269;22348;-77
2023/11/10 00:15:57;;;;;;;25.40;10.10;;;;;;;6.74;85.06;99336.46;110537;1269;214432;-77
2023/11/10 00:18:25;;;;;;;20.80;8.30;;;;;;;6.74;85.23;99340.86;110705;1272;22380;-77
2023/11/10 00:20:56;;;;;;;22.50;8.70;;;;;;;6.74;85.47;99344.60;110690;1266;22336;-78
2023/11/10 00:23:25;;;;;;;21.40;8.30;;;;;;;6.76;85.49;99346.89;110703;1264;22348;-77
2023/11/10 00:25:53;;;;;;;21.80;8.90;;;;;;;6.78;85.63;99348.20;110705;1266;22184;-77
2023/11/10 00:28:22;;;;;;;22.70;9.60;;;;;;;6.79;85.49;99343.31;110700;1266;22866;-77
2023/11/10 00:30:50;;;;;;;24.50;9.00;;;;;;;6.79;85.50;99343.29;110715;1269;22388;-77
2023/11/10 00:33:19;;;;;;;22.80;8.70;;;;;;;6.80;85.60;99341.19;110684;1267;22278;-77
2023/11/10 00:35:47;;;;;;;23.10;9.20;;;;;;;6.79;85.71;99340.35;110710;1270;23071;-77
2023/11/10 00:38:15;;;;;;;25.70;10.90;;;;;;;6.80;85.70;99328.96;110468;1270;23018;-77
2023/11/10 00:40:44;;;;;;;25.00;10.00;;;;;;;6.81;85.72;99324.53;110666;1267;22991;-77
2023/11/10 00:43:12;;;;;;;21.60;8.90;;;;;;;6.80;85.78;99324.92;110690;1272;22454;-78
2023/11/10 00:45:43;;;;;;;23.00;9.30;;;;;;;6.81;85.89;99321.52;110719;1272;22201;-77
2023/11/10 00:48:11;;;;;;;25.00;9.60;;;;;;;6.82;85.94;99314.38;110691;1272;22303;-77
2023/11/10 00:50:40;;;;;;;19.80;8.60;;;;;;;6.83;85.91;99305.77;110719;1268;22736;-77
2023/11/10 00:53:09;;;;;;;24.50;9.00;;;;;;;6.84;86.07;99297.48;110720;1253;22858;-77
2023/11/10 00:55:37;;;;;;;26.30;11.10;;;;;;;6.86;85.98;99291.05;110700;1267;22226;-77
2023/11/10 00:58:05;;;;;;;21.90;9.00;;;;;;;6.87;86.07;99293.44;110694;1272;22275;-77
2023/11/10 01:00:34;;;;;;;22.50;10.60;;;;;;;6.87;86.07;99295.67;110709;1267;22340;-77
2023/11/10 01:03:05;;;;;;;21.40;9.10;;;;;;;6.86;86.24;99292.12;110668;1272;22201;-77
2023/11/10 01:05:33;;;;;;;22.30;9.20;;;;;;;6.88;86.39;99287.04;110736;1267;22251;-77
2023/11/10 01:08:02;;;;;;;22.20;9.40;;;;;;;6.89;86.57;99291.80;110675;1269;22220;-77
2023/11/10 01:10:32;;;;;;;24.10;9.00;;;;;;;6.89;86.47;99304.16;110712;1269;22377;-77
2023/11/10 01:13:00;;;;;;;20.60;9.20;;;;;;;6.91;86.50;99303.45;110699;1270;22140;-77
2023/11/10 01:15:31;;;;;;;21.80;9.80;;;;;;;6.92;86.73;99303.46;110495;1272;22252;-78
2023/11/10 01:17:59;;;;;;;23.30;9.10;;;;;;;6.94;86.96;99299.88;110719;1269;22421;-77
2023/11/10 01:20:28;;;;;;;28.80;11.60;;;;;;;6.95;87.12;99298.68;110699;1266;22409;-77
2023/11/10 01:22:56;;;;;;;26.40;11.90;;;;;;;6.96;87.27;99299.35;110699;1266;23410;-77
2023/11/10 01:25:25;;;;;;;29.60;11.50;;;;;;;6.95;87.36;99296.06;110717;1266;22377;-77
2023/11/10 01:27:53;;;;;;;24.10;11.40;;;;;;;6.96;87.56;99293.98;110683;1272;22398;-77
2023/11/10 01:30:22;;;;;;;25.30;12.10;;;;;;;6.96;87.66;99299.70;110712;1267;22240;-77
2023/11/10 01:32:54;;;;;;;25.60;11.70;;;;;;;6.97;87.72;99288.67;110680;1267;23242;-77
2023/11/10 01:35:26;;;;;;;26.80;10.60;;;;;;;6.99;88.00;99279.70;110706;1269;23057;-77
2023/11/10 01:37:57;;;;;;;28.20;12.10;;;;;;;7.01;88.13;99276.29;110699;1266;22498;-77
2023/11/10 01:40:26;;;;;;;31.20;12.60;;;;;;;7.02;88.21;99271.70;110704;1267;23024;-77
2023/11/10 01:42:55;;;;;;;26.90;12.50;;;;;;;7.02;88.11;99269.55;110530;1269;23088;-78
2023/11/10 01:45:23;;;;;;;27.10;11.20;;;;;;;7.04;88.31;99266.59;110664;1272;22306;-78
2023/11/10 01:47:52;;;;;;;28.60;11.90;;;;;;;7.05;88.24;99247.25;110682;1266;22323;-77
2023/11/10 01:50:20;;;;;;;29.20;12.60;;;;;;;7.06;88.66;99245.70;110700;1267;22201;-77
2023/11/10 01:52:49;;;;;;;29.50;11.40;;;;;;;7.05;88.70;99257.23;110684;1267;22201;-77
2023/11/10 01:55:18;;;;;;;22.00;10.00;;;;;;;7.05;88.64;99255.02;110724;1267;23125;-77
2023/11/10 01:57:47;;;;;;;28.30;11.90;;;;;;;7.06;88.77;99253.77;110475;1272;22360;-77
2023/11/10 02:00:18;;;;;;;31.20;11.60;;;;;;;7.08;88.97;99253.45;110598;1272;22283;-77
2023/11/10 02:02:50;;;;;;;22.70;10.40;;;;;;;7.09;88.93;99252.35;110683;1267;22351;-77
2023/11/10 02:05:25;;;;;;;23.80;10.60;;;;;;;7.10;89.07;99246.98;110478;1266;23261;-77
2023/11/10 02:07:54;;;;;;;24.80;9.70;;;;;;;7.10;89.18;99240.38;110495;1269;22346;-77
2023/11/10 02:10:22;;;;;;;20.80;8.20;;;;;;;7.10;89.32;99233.90;110656;1267;22227;-77
2023/11/10 02:12:55;;;;;;;22.30;9.20;;;;;;;7.10;89.50;99232.61;110755;1269;22394;-77
2023/11/10 02:15:25;;;;;;;20.30;9.10;;;;;;;7.12;89.47;99228.73;110745;1265;22415;-77
2023/11/10 02:17:53;;;;;;;18.70;7.80;;;;;;;7.12;89.64;99223.95;110741;1272;23232;-77
2023/11/10 02:20:23;;;;;;;19.30;7.00;;;;;;;7.12;89.74;99227.73;110710;1272;23060;-77
2023/11/10 02:22:52;;;;;;;17.30;7.70;;;;;;;7.14;89.72;99225.00;110648;1272;22077;-77
2023/11/10 02:25:20;;;;;;;17.90;6.40;;;;;;;7.17;89.89;99214.19;110641;1268;23621;-77
2023/11/10 02:27:50;;;;;;;17.00;7.70;;;;;;;7.18;89.94;99206.70;110661;1266;23571;-77
2023/11/10 02:30:19;;;;;;;16.00;6.70;;;;;;;7.21;90.04;99210.87;110704;1268;22234;-77
2023/11/10 02:32:47;;;;;;;16.70;6.40;;;;;;;7.24;90.03;99209.20;110688;1264;22229;-77
2023/11/10 02:35:17;;;;;;;17.40;6.40;;;;;;;7.27;90.20;99204.56;110692;1272;23295;-77
2023/11/10 02:37:49;;;;;;;21.10;7.90;;;;;;;7.30;90.24;99199.45;110423;1266;22069;-77
2023/11/10 02:40:21;;;;;;;16.50;6.10;;;;;;;7.34;89.95;99198.25;110592;1269;22272;-77
2023/11/10 02:42:49;;;;;;;15.00;5.80;;;;;;;7.37;90.06;99202.70;110665;1265;22184;-77
2023/11/10 02:45:18;;;;;;;14.10;5.50;;;;;;;7.39;89.95;99195.55;110704;1267;22443;-77
2023/11/10 02:47:46;;;;;;;18.40;6.20;;;;;;;7.42;90.07;99193.61;110727;1269;22356;-77
2023/11/10 02:50:15;;;;;;;14.60;5.60;;;;;;;7.44;90.11;99190.31;110777;1269;22195;-77
2023/11/10 02:52:44;;;;;;;16.80;6.20;;;;;;;7.45;90.04;99183.96;110717;1272;22368;-77
2023/11/10 02:55:13;;;;;;;14.20;5.80;;;;;;;7.46;90.01;99177.67;110776;1272;22340;-78
2023/11/10 02:57:41;;;;;;;13.70;4.90;;;;;;;7.47;89.95;99176.77;110740;1266;22208;-77
2023/11/10 03:00:14;;;;;;;12.80;5.10;;;;;;;7.49;89.98;99180.08;110753;1267;22914;-77
2023/11/10 03:02:43;;;;;;;14.00;5.60;;;;;;;7.51;89.90;99179.21;110730;1267;22315;-77
2023/11/10 03:05:11;;;;;;;15.30;6.00;;;;;;;7.53;89.86;99178.53;110745;1266;22272;-77
2023/11/10 03:07:40;;;;;;;11.70;4.50;;;;;;;7.55;89.81;99184.27;110489;1267;22157;-77
2023/11/10 03:10:11;;;;;;;16.50;5.40;;;;;;;7.56;89.64;99174.35;110772;1269;22198;-77
2023/11/10 03:12:48;;;;;;;18.10;5.50;;;;;;;7.58;89.73;99165.77;110771;1272;22273;-76
2023/11/10 03:15:19;;;;;;;16.50;5.60;;;;;;;7.58;89.64;99163.30;110776;1266;22173;-77
2023/11/10 03:17:50;;;;;;;16.40;5.60;;;;;;;7.58;89.74;99165.73;110707;1272;22314;-77
2023/11/10 03:20:19;;;;;;;;;;;;;;;7.59;89.56;99168.11;110805;1267;22468;-77
2023/11/10 03:22:48;;;;;;;14.40;5.60;;;;;;;7.56;89.52;99168.23;110713;1272;22349;-77
2023/11/10 03:25:19;;;;;;;13.50;5.30;;;;;;;7.55;89.62;99165.13;110762;1267;22198;-77
2023/11/10 03:27:47;;;;;;;13.00;4.70;;;;;;;7.53;89.72;99159.20;110727;1269;23270;-77
2023/11/10 03:30:16;;;;;;;13.00;5.10;;;;;;;7.54;89.75;99158.55;110724;1265;23249;-77
2023/11/10 03:32:47;;;;;;;12.90;4.50;;;;;;;7.53;89.77;99157.13;110417;1267;23105;-77
2023/11/10 03:35:15;;;;;;;13.30;5.30;;;;;;;7.52;89.74;99152.21;110741;1272;22226;-77
2023/11/10 03:37:47;;;;;;;15.30;5.30;;;;;;;7.52;89.85;99146.10;110712;1270;22348;-77
2023/11/10 03:40:16;;;;;;;19.10;5.90;;;;;;;7.53;89.85;99146.67;110739;1267;23172;-77
2023/11/10 03:42:44;;;;;;;14.00;5.50;;;;;;;7.54;89.84;99143.96;110723;1272;22348;-77
2023/11/10 03:45:14;;;;;;;14.40;5.40;;;;;;;7.54;89.86;99141.54;110466;1266;22296;-77
2023/11/10 03:47:43;;;;;;;14.30;5.70;;;;;;;7.55;89.94;99139.92;110747;1266;22275;-77
2023/11/10 03:50:12;;;;;;;15.40;5.80;;;;;;;7.55;89.85;99137.87;110762;1272;22222;-77
2023/11/10 03:52:42;;;;;;;13.10;5.30;;;;;;;7.55;89.95;99138.77;110757;1268;23142;-77
2023/11/10 03:55:11;;;;;;;13.80;5.40;;;;;;;7.56;89.81;99138.89;110719;1266;22407;-77
2023/11/10 03:57:40;;;;;;;13.90;6.30;;;;;;;7.58;89.77;99137.54;110745;1272;22939;-77
2023/11/10 04:00:12;;;;;;;15.60;5.00;;;;;;;7.59;89.84;99137.55;110765;1269;22240;-77
2023/11/10 04:02:41;;;;;;;18.10;5.40;;;;;;;7.58;89.92;99135.33;110497;1272;22184;-77
2023/11/10 04:05:10;;;;;;;14.00;4.90;;;;;;;7.60;89.89;99137.16;110784;1266;22966;-77
2023/11/10 04:07:38;;;;;;;12.60;4.70;;;;;;;7.61;89.86;99137.98;110761;1272;23376;-77
2023/11/10 04:10:10;;;;;;;12.70;4.70;;;;;;;7.62;89.92;99139.88;110780;1267;22429;-77
2023/11/10 04:12:39;;;;;;;13.10;5.30;;;;;;;7.63;89.83;99132.52;110707;1269;22231;-77
2023/11/10 04:15:10;;;;;;;13.10;4.20;;;;;;;7.64;89.99;99131.20;110762;1270;22140;-77
2023/11/10 04:17:39;;;;;;;13.50;5.20;;;;;;;7.64;89.80;99132.92;110721;1269;22189;-77
2023/11/10 04:20:10;;;;;;;14.00;4.80;;;;;;;7.65;90.02;99130.17;110789;1267;22266;-77
2023/11/10 04:22:41;;;;;;;12.50;5.00;;;;;;;7.67;89.95;99128.58;110731;1265;22164;-77
2023/11/10 04:25:12;;;;;;;14.20;4.20;;;;;;;7.68;89.84;99125.95;110734;1269;23336;-77
2023/11/10 04:27:41;;;;;;;;;;;;;;;7.69;89.97;99130.82;110755;1272;22651;-77
2023/11/10 04:30:15;;;;;;;13.10;4.90;;;;;;;7.68;89.94;99129.90;110738;1268;22404;-77
2023/11/10 04:32:43;;;;;;;12.30;5.00;;;;;;;7.70;89.88;99130.38;110719;1266;22403;-77
2023/11/10 04:35:12;;;;;;;14.10;4.90;;;;;;;7.71;89.93;99133.63;110720;1269;22323;-77
2023/11/10 04:37:40;;;;;;;13.80;4.10;;;;;;;7.72;89.83;99132.47;110700;1268;23017;-77
2023/11/10 04:40:11;;;;;;;13.40;4.60;;;;;;;7.73;89.78;99130.42;110728;1267;22932;-77
2023/11/10 04:42:40;;;;;;;12.70;3.70;;;;;;;7.74;89.83;99129.98;110709;1266;22366;-76
2023/11/10 04:45:10;;;;;;;13.00;4.30;;;;;;;7.75;89.84;99127.42;110758;1266;22594;-77
2023/11/10 04:47:39;;;;;;;14.70;4.80;;;;;;;7.77;89.85;99119.16;110737;1270;22982;-77
2023/11/10 04:50:10;;;;;;;12.50;4.70;;;;;;;7.78;89.72;99114.58;110720;1266;23324;-77
2023/11/10 04:52:38;;;;;;;12.00;4.30;;;;;;;7.79;89.82;99113.96;110662;1267;22370;-77
2023/11/10 04:55:11;;;;;;;15.80;4.60;;;;;;;7.80;89.72;99113.58;110656;1266;22355;-77
2023/11/10 04:57:45;;;;;;;15.60;4.70;;;;;;;7.80;89.72;99115.30;110645;1269;23139;-77
2023/11/10 05:00:16;;;;;;;15.50;5.60;;;;;;;7.81;89.78;99115.77;110694;1270;22259;-77
2023/11/10 05:02:47;;;;;;;15.00;5.60;;;;;;;7.81;89.69;99110.57;110695;1272;22349;-77
2023/11/10 05:05:16;;;;;;;22.50;8.20;;;;;;;7.83;89.74;99107.05;110660;1269;22296;-77
2023/11/10 05:07:46;;;;;;;17.80;8.20;;;;;;;7.84;89.79;99105.30;110561;1266;22934;-77
2023/11/10 05:10:15;;;;;;;16.50;6.00;;;;;;;7.87;89.80;99107.29;110477;1272;22343;-77
2023/11/10 05:12:44;;;;;;;15.40;6.00;;;;;;;7.87;89.82;99102.80;110693;1272;23270;-76
2023/11/10 05:15:13;;;;;;;18.50;5.70;;;;;;;7.88;89.75;99098.92;110776;1269;22260;-77
2023/11/10 05:17:43;;;;;;;13.90;5.20;;;;;;;7.88;89.61;99092.20;110692;1268;22224;-78
2023/11/10 05:20:13;;;;;;;9.40;3.30;;;;;;;7.89;89.64;99090.00;110701;1272;22358;-78
2023/11/10 05:22:43;;;;;;;11.60;3.70;;;;;;;7.90;89.67;99087.58;110683;1267;22183;-78
2023/11/10 05:25:12;;;;;;;15.50;3.20;;;;;;;7.91;89.77;99089.66;110749;1269;23047;-77
2023/11/10 05:27:41;;;;;;;10.60;3.40;;;;;;;7.93;89.72;99088.11;110791;1272;22979;-78
2023/11/10 05:30:13;;;;;;;11.30;2.90;;;;;;;7.95;89.69;99085.67;110759;1269;22293;-78
2023/11/10 05:32:52;;;;;;;11.10;2.90;;;;;;;7.98;89.61;99083.67;110686;1266;23127;-78
2023/11/10 05:35:20;;;;;;;11.80;2.80;;;;;;;8.02;89.61;99087.56;110724;1272;22197;-78
2023/11/10 05:37:49;;;;;;;10.30;3.20;;;;;;;8.05;89.63;99085.00;110755;1272;22328;-79
2023/11/10 05:40:19;;;;;;;13.40;2.90;;;;;;;8.07;89.52;99087.56;110707;1272;22409;-76
2023/11/10 05:42:48;;;;;;;9.90;3.30;;;;;;;8.09;89.57;99089.15;110710;1272;22275;-77
2023/11/10 05:45:17;;;;;;;9.60;2.90;;;;;;;8.11;89.62;99085.64;110736;1269;23245;-77
2023/11/10 05:47:45;;;;;;;12.10;3.60;;;;;;;8.13;89.54;99084.99;110726;1272;22484;-77
2023/11/10 05:50:16;;;;;;;6.00;2.30;;;;;;;8.14;89.48;99087.79;110673;1272;22160;-78
2023/11/10 05:52:44;;;;;;;10.10;2.60;;;;;;;8.16;89.32;99089.31;110669;1272;22712;-77
2023/11/10 05:55:13;;;;;;;8.30;2.10;;;;;;;8.18;89.32;99091.47;110652;1271;22207;-76
2023/11/10 05:57:41;;;;;;;8.80;2.30;;;;;;;8.21;89.26;99090.38;110708;1272;23305;-77
2023/11/10 06:00:12;;;;;;;8.90;2.90;;;;;;;8.24;89.03;99096.96;110750;1269;22325;-76
2023/11/10 06:02:41;;;;;;;10.40;3.30;;;;;;;8.26;88.81;99096.11;110656;1272;23047;-76
2023/11/10 06:05:11;;;;;;;10.60;2.80;;;;;;;8.30;88.86;99088.52;110739;1272;22180;-76
2023/11/10 06:07:41;;;;;;;8.40;2.40;;;;;;;8.33;88.67;99086.33;109719;1270;23186;-77
2023/11/10 06:10:11;;;;;;;7.40;2.10;;;;;;;8.35;88.61;99086.10;108287;1269;24286;-76
2023/11/10 06:12:39;;;;;;;9.70;2.50;;;;;;;8.37;88.54;99087.82;110685;1267;22448;-76
2023/11/10 06:15:09;;;;;;;7.40;2.60;;;;;;;8.37;88.42;99087.17;110705;1266;22366;-75
2023/11/10 06:17:38;;;;;;;7.80;2.60;;;;;;;8.37;88.23;99087.98;109562;1270;22542;-76
2023/11/10 06:20:10;;;;;;;8.70;2.70;;;;;;;8.37;88.23;99090.36;108295;1266;24386;-76
2023/11/10 06:22:40;;;;;;;11.10;2.20;;;;;;;8.37;88.10;99094.81;110681;1267;22877;-77
2023/11/10 06:25:11;;;;;;;10.10;3.20;;;;;;;8.34;88.10;99099.73;110714;1267;22366;-76
2023/11/10 06:27:41;;;;;;;8.10;2.30;;;;;;;8.33;88.09;99102.55;110675;1265;22437;-76
2023/11/10 06:30:12;;;;;;;8.80;2.90;;;;;;;8.29;88.05;99104.98;110671;1267;22980;-76
2023/11/10 06:32:41;;;;;;;12.00;2.60;;;;;;;8.28;88.17;99103.21;110655;1267;22344;-76
2023/11/10 06:35:09;;;;;;;10.70;3.30;;;;;;;8.28;88.10;99104.58;110687;1269;22380;-76
2023/11/10 06:37:38;;;;;;;7.90;2.10;;;;;;;8.27;87.95;99099.66;110718;1269;22477;-77
2023/11/10 06:40:08;;;;;;;9.20;2.60;;;;;;;8.29;88.23;99095.80;110707;1269;22319;-77
2023/11/10 06:42:37;;;;;;;8.70;2.10;;;;;;;8.29;88.04;99095.04;110675;1270;22162;-76
2023/11/10 06:45:08;;;;;;;9.10;2.80;;;;;;;8.30;88.12;99091.06;110683;1272;22446;-76
2023/11/10 06:47:36;;;;;;;9.70;2.50;;;;;;;8.30;87.99;99095.55;110473;1272;22177;-76
2023/11/10 06:50:07;;;;;;;9.50;2.40;;;;;;;8.32;87.88;99108.61;110757;1269;22227;-77
2023/11/10 06:52:35;;;;;;;10.10;2.40;;;;;;;8.34;88.02;99112.79;110714;1272;22257;-76
2023/11/10 06:55:09;;;;;;;8.90;2.80;;;;;;;8.35;87.85;99101.13;110743;1272;22961;-75
2023/11/10 06:57:37;;;;;;;9.30;2.30;;;;;;;8.36;87.94;99095.82;110737;1269;23328;-75
2023/11/10 07:00:10;;;;;;;9.50;3.00;;;;;;;8.37;87.97;99093.51;110706;1272;22169;-76
2023/11/10 07:02:39;;;;;;;8.90;2.40;;;;;;;8.38;87.85;99098.67;110694;1272;22378;-76
2023/11/10 07:05:09;;;;;;;12.40;3.10;;;;;;;8.37;87.93;99098.76;110673;1272;22405;-76
2023/11/10 07:07:40;;;;;;;9.40;2.70;;;;;;;8.37;87.90;99096.78;110761;1272;22459;-76
2023/11/10 07:10:10;;;;;;;8.70;2.70;;;;;;;8.37;87.98;99091.08;110736;1272;22345;-77
2023/11/10 07:12:38;;;;;;;8.90;2.60;;;;;;;8.37;87.89;99086.25;110731;1272;22370;-76
2023/11/10 07:15:09;;;;;;;11.50;3.20;;;;;;;8.36;87.78;99079.64;110505;1273;22178;-76
2023/11/10 07:17:38;;;;;;;11.20;3.70;;;;;;;8.34;87.89;99079.97;110723;1272;22417;-75
2023/11/10 07:20:10;;;;;;;9.20;3.20;;;;;;;8.32;87.84;99078.73;110726;1272;22243;-75
2023/11/10 07:22:41;;;;;;;11.60;3.90;;;;;;;8.31;87.90;99083.34;110712;1269;22373;-75
2023/11/10 07:25:13;;;;;;;10.40;2.80;;;;;;;8.32;87.88;99092.59;110718;1267;23005;-76
2023/11/10 07:27:41;;;;;;;14.80;4.00;;;;;;;8.33;87.84;99100.39;110772;1267;22304;-76
2023/11/10 07:30:11;;;;;;;17.00;4.00;;;;;;;8.34;88.04;99108.64;110745;1270;22187;-76
2023/11/10 07:32:41;;;;;;;13.50;4.10;;;;;;;8.37;88.02;99111.60;110758;1267;22175;-76
2023/11/10 07:35:11;;;;;;;8.20;2.50;;;;;;;8.40;88.02;99117.90;110752;1272;22203;-75
2023/11/10 07:37:41;;;;;;;12.10;4.70;;;;;;;8.42;88.02;99115.74;110743;1270;23226;-76
2023/11/10 07:40:12;;;;;;;16.20;3.40;;;;;;;8.46;88.12;99110.67;110749;1272;23029;-75
2023/11/10 07:42:45;;;;;;;9.60;3.80;;;;;;;8.50;88.12;99110.52;110770;1272;23105;-75
2023/11/10 07:45:16;;;;;;;16.10;3.80;;;;;;;8.54;88.13;99115.75;110690;1272;22930;-75
2023/11/10 07:47:45;;;;;;;13.20;3.50;;;;;;;8.57;88.10;99116.34;110679;1272;22402;-76
2023/11/10 07:50:14;;;;;;;12.20;3.30;;;;;;;8.61;88.20;99109.28;110757;1272;22379;-76
2023/11/10 07:52:44;;;;;;;12.20;3.30;;;;;;;8.64;88.02;99106.98;110741;1272;22484;-75
2023/11/10 07:55:12;;;;;;;21.30;6.50;;;;;;;8.66;87.99;99104.08;110765;1272;23107;-75
2023/11/10 07:57:42;;;;;;;53.70;23.60;;;;;;;8.68;87.76;99103.83;110758;1272;22420;-76
2023/11/10 08:00:16;;;;;;;45.60;21.70;;;;;;;8.71;87.92;99103.96;110707;1267;22212;-76
2023/11/10 08:02:56;;;;;;;46.80;21.70;;;;;;;8.72;87.93;99102.66;110774;1272;22154;-76
2023/11/10 08:05:24;;;;;;;25.20;11.60;;;;;;;8.74;87.90;99097.02;110697;1272;22220;-76
2023/11/10 08:07:56;;;;;;;31.90;14.80;;;;;;;8.75;87.77;99096.86;110773;1267;23012;-76
2023/11/10 08:10:24;;;;;;;34.60;16.40;;;;;;;8.76;87.89;99100.91;110676;1272;22264;-76
2023/11/10 08:12:53;;;;;;;28.30;14.10;;;;;;;8.77;87.85;99103.45;110747;1267;23032;-76
2023/11/10 08:15:21;;;;;;;22.30;11.10;;;;;;;8.79;87.54;99099.61;110791;1272;22627;-76
2023/11/10 08:17:50;;;;;;;19.80;9.00;;;;;;;8.81;87.56;99101.14;110773;1272;23324;-76
2023/11/10 08:20:19;;;;;;;22.60;9.10;;;;;;;8.85;87.56;99106.40;110711;1272;22165;-76
2023/11/10 08:22:47;;;;;;;14.80;5.90;;;;;;;8.88;87.64;99103.64;110753;1272;22175;-75
2023/11/10 08:25:16;;;;;;;15.40;3.90;;;;;;;8.91;87.60;99098.55;110750;1263;22192;-76
2023/11/10 08:27:44;;;;;;;13.20;3.90;;;;;;;8.95;87.42;99095.84;110709;1272;22219;-76
2023/11/10 08:30:14;;;;;;;13.40;4.40;;;;;;;9.00;87.43;99093.51;110753;1269;22576;-76
2023/11/10 08:32:42;;;;;;;17.00;6.00;;;;;;;9.05;87.53;99092.96;110743;1272;22157;-75
2023/11/10 08:35:11;;;;;;;12.50;4.90;;;;;;;9.09;87.52;99088.39;110753;1267;22223;-76
2023/11/10 08:37:39;;;;;;;12.60;4.00;;;;;;;9.13;87.36;99083.66;110669;1267;22387;-76
2023/11/10 08:40:10;;;;;;;9.00;3.40;;;;;;;9.18;87.48;99084.20;110748;1272;22366;-76
2023/11/10 08:42:38;;;;;;;;;;;;;;;9.22;87.34;99078.50;110772;1269;22388;-76
2023/11/10 08:45:08;;;;;;;10.60;3.40;;;;;;;9.25;87.18;99084.85;110669;1272;22342;-76
2023/11/10 08:47:37;;;;;;;9.40;3.20;;;;;;;9.30;87.04;99085.02;110703;1272;22480;-76
2023/11/10 08:50:11;;;;;;;14.20;3.40;;;;;;;9.34;86.91;99089.61;110742;1272;22859;-76
2023/11/10 08:52:41;;;;;;;13.00;3.70;;;;;;;9.38;86.71;99084.02;110750;1268;22198;-76
2023/11/10 08:55:11;;;;;;;;;;;;;;;9.42;86.72;99083.08;110768;1267;22469;-76
2023/11/10 08:57:40;;;;;;;12.60;4.20;;;;;;;9.45;86.75;99082.52;110763;1266;23136;-76
2023/11/10 09:00:13;;;;;;;11.80;3.60;;;;;;;9.51;86.81;99081.94;110744;1260;22186;-75
2023/11/10 09:02:42;;;;;;;14.10;4.30;;;;;;;9.54;86.65;99086.05;110765;1272;22396;-76
2023/11/10 09:05:11;;;;;;;10.70;2.80;;;;;;;9.58;86.63;99084.77;110744;1272;22178;-76
2023/11/10 09:07:41;;;;;;;13.20;3.20;;;;;;;9.63;86.41;99086.71;110739;1272;22210;-76
2023/11/10 09:10:11;;;;;;;15.10;3.50;;;;;;;9.66;85.98;99086.32;110662;1272;22074;-76
2023/11/10 09:12:42;;;;;;;10.60;3.50;;;;;;;9.71;86.04;99085.73;110738;1272;22185;-76
2023/11/10 09:15:11;;;;;;;18.90;4.40;;;;;;;9.77;86.07;99087.16;110754;1272;22400;-76
2023/11/10 09:17:40;;;;;;;12.10;3.70;;;;;;;9.84;85.69;99088.71;110774;1272;22171;-76
2023/11/10 09:20:10;;;;;;;10.60;3.10;;;;;;;9.90;85.06;99094.40;110739;1272;22332;-76
2023/11/10 09:22:38;;;;;;;13.00;2.80;;;;;;;9.96;85.26;99090.33;110765;1272;22367;-77
2023/11/10 09:25:13;;;;;;;8.50;2.40;;;;;;;10.02;85.05;99088.77;110763;1267;22337;-76
2023/11/10 09:27:43;;;;;;;8.80;2.50;;;;;;;10.08;84.88;99088.44;110777;1270;22285;-75
2023/11/10 09:30:13;;;;;;;9.10;3.10;;;;;;;10.14;84.30;99090.10;110760;1260;22184;-76
2023/11/10 09:32:42;;;;;;;6.60;2.10;;;;;;;10.21;84.27;99085.70;110746;1267;22161;-76
2023/11/10 09:35:16;;;;;;;8.50;2.60;;;;;;;10.26;83.96;99085.20;110754;1272;23023;-76
2023/11/10 09:37:46;;;;;;;11.40;3.80;;;;;;;10.32;83.88;99082.52;110760;1272;22984;-76
2023/11/10 09:40:16;;;;;;;10.40;2.60;;;;;;;10.36;83.59;99081.87;110752;1272;22160;-75
2023/11/10 09:42:45;;;;;;;8.50;2.70;;;;;;;10.41;83.51;99081.52;110692;1272;22167;-76
2023/11/10 09:45:15;;;;;;;11.10;2.30;;;;;;;10.46;83.17;99079.75;110750;1272;22218;-76
2023/11/10 09:47:45;;;;;;;8.90;3.10;;;;;;;10.50;83.15;99079.86;110781;1267;22973;-75
2023/11/10 09:50:15;;;;;;;10.00;2.40;;;;;;;10.53;83.04;99081.38;110767;1272;22891;-75
2023/11/10 09:52:45;;;;;;;12.00;2.80;;;;;;;10.57;82.86;99080.56;110749;1272;22727;-75
2023/11/10 09:55:13;;;;;;;8.10;2.30;;;;;;;10.60;82.88;99079.04;110746;1265;22895;-76
2023/11/10 09:57:43;;;;;;;11.60;2.80;;;;;;;10.64;82.76;99076.76;110746;1253;22192;-76
2023/11/10 10:00:13;;;;;;;13.40;2.50;;;;;;;10.67;82.65;99074.84;110726;1272;23091;-76
2023/11/10 10:02:41;;;;;;;;;;;;;;;10.69;82.11;99073.97;110715;1272;22435;-76
2023/11/10 10:05:10;;;;;;;8.10;1.90;;;;;;;10.70;82.41;99070.63;110768;1266;22219;-75
2023/11/10 10:07:40;;;;;;;9.10;2.50;;;;;;;10.72;82.31;99069.34;110780;1268;22196;-75
2023/11/10 10:10:11;;;;;;;9.90;2.80;;;;;;;10.74;82.14;99063.66;110776;1272;22324;-75
2023/11/10 10:12:40;;;;;;;8.80;2.80;;;;;;;10.77;82.12;99059.05;110760;1272;22165;-75
2023/11/10 10:15:12;;;;;;;8.60;2.40;;;;;;;10.78;82.12;99054.63;110714;1272;22168;-76
2023/11/10 10:17:41;;;;;;;10.60;3.10;;;;;;;10.79;81.69;99054.52;110669;1272;23027;-75
2023/11/10 10:20:13;;;;;;;9.20;2.70;;;;;;;10.80;81.69;99050.46;110741;1265;23016;-76
2023/11/10 10:22:46;;;;;;;10.50;2.40;;;;;;;10.82;82.03;99051.98;110685;1272;22169;-75
2023/11/10 10:25:16;;;;;;;7.50;2.10;;;;;;;10.82;81.78;99052.08;110785;1272;22190;-76
2023/11/10 10:27:46;;;;;;;7.40;2.30;;;;;;;10.84;81.60;99050.77;110721;1272;22382;-75
2023/11/10 10:30:18;;;;;;;10.00;2.60;;;;;;;10.85;81.11;99047.82;110742;1272;22275;-76
2023/11/10 10:32:47;;;;;;;7.60;2.20;;;;;;;10.85;81.19;99040.01;110748;1272;23025;-76
2023/11/10 10:35:15;;;;;;;9.70;2.50;;;;;;;10.85;80.92;99039.29;110762;1266;22996;-76
2023/11/10 10:37:44;;;;;;;6.80;2.00;;;;;;;10.84;80.82;99037.57;110728;1272;22806;-76
2023/11/10 10:40:14;;;;;;;8.60;3.40;;;;;;;10.84;80.88;99040.25;110775;1268;22237;-76
2023/11/10 10:42:47;;;;;;;10.60;2.80;;;;;;;10.84;80.87;99031.93;110725;1270;22248;-76
2023/11/10 10:45:15;;;;;;;12.10;3.20;;;;;;;10.84;80.79;99029.03;110748;1265;22256;-77
2023/11/10 10:47:46;;;;;;;9.60;2.50;;;;;;;10.87;80.86;99027.36;110676;1272;22213;-76
2023/11/10 10:50:14;;;;;;;9.40;2.40;;;;;;;10.88;80.61;99029.85;110681;1272;22159;-76
2023/11/10 10:52:46;;;;;;;11.10;2.50;;;;;;;10.87;80.34;99025.73;110733;1272;22208;-76
2023/11/10 10:55:17;;;;;;;11.10;3.20;;;;;;;10.88;80.58;99025.08;110648;1272;22425;-76
2023/11/10 10:57:50;;;;;;;8.50;2.00;;;;;;;10.89;80.65;99023.25;110743;1272;22175;-76
2023/11/10 11:00:20;;;;;;;11.40;2.10;;;;;;;10.89;80.43;99022.08;110733;1272;22216;-76
2023/11/10 11:02:53;;;;;;;8.70;2.30;;;;;;;10.91;80.40;99025.36;110717;1272;22164;-76
2023/11/10 11:05:37;;;;;;;10.90;2.00;;;;;;;10.93;80.76;99025.52;110751;1268;22930;-76
2023/11/10 11:08:22;;;;;;;9.30;2.70;;;;;;;10.96;80.95;99022.36;110659;1272;22417;-76
2023/11/10 11:11:12;;;;;;;13.20;3.70;;;;;;;10.99;81.25;99018.70;110776;1272;22236;-76
2023/11/10 11:14:00;;;;;;;12.00;3.80;;;;;;;11.01;81.09;99013.42;110641;1268;22157;-76
2023/11/10 11:16:47;;;;;;;11.50;3.60;;;;;;;11.01;80.83;99014.33;110703;1272;22177;-76
2023/11/10 11:19:22;;;;;;;13.00;3.70;;;;;;;11.00;80.52;99008.14;110741;1261;22395;-76
2023/11/10 11:21:54;;;;;;;10.80;3.60;;;;;;;10.98;80.60;99007.44;110789;1272;22263;-76
2023/11/10 11:24:23;;;;;;;11.60;3.30;;;;;;;10.99;80.41;99005.95;110785;1272;22217;-76
2023/11/10 11:26:58;;;;;;;10.00;3.20;;;;;;;10.99;80.16;99002.55;110681;1272;22156;-76
2023/11/10 11:29:34;;;;;;;10.20;2.90;;;;;;;10.99;80.20;99003.02;110786;1272;22188;-76
2023/11/10 11:32:05;;;;;;;10.70;2.30;;;;;;;10.99;80.11;99000.67;110712;1265;23112;-75
2023/11/10 11:34:37;;;;;;;11.50;2.70;;;;;;;11.00;80.16;98994.13;110756;1272;22152;-76
2023/11/10 11:37:06;;;;;;;9.40;2.60;;;;;;;11.01;80.18;98991.73;110778;1260;22333;-75
2023/11/10 11:39:35;;;;;;;10.10;2.20;;;;;;;11.01;79.56;98995.89;110768;1272;22195;-76